Time;durP1;ratioP1;P1;durP2;ratioP2;P2;SDS_P1;SDS_P2;PMS_P1;PMS_P2;Temp;Humidity;BMP_temperature;BMP_pressure;BME280_temperature;BME280_humidity;BME280_pressure;Samples;Min_cycle;Max_cycle;Signal;HPM_P1;HPM_P2
2023/12/25 00:01:52;;;;;;;1.90;0.30;;;;;;;;;;4790346;29;20494;-83
2023/12/25 00:04:18;;;;;;;3.58;2.00;;;;;;;;;;4778272;30;20039;-83
2023/12/25 00:06:45;;;;;;;6.85;1.15;;;;;;;;;;4789652;30;20054;-83
2023/12/25 00:09:11;;;;;;;2.72;1.85;;;;;;;;;;4798116;29;20389;-83
2023/12/25 00:11:37;;;;;;;2.80;0.85;;;;;;;;;;4788644;30;20095;-83
2023/12/25 00:14:03;;;;;;;1.40;1.05;;;;;;;;;;4773150;30;20055;-83
2023/12/25 00:16:29;;;;;;;3.13;0.80;;;;;;;;;;4788164;30;20047;-83
2023/12/25 00:18:58;;;;;;;1.67;0.77;;;;;;;;;;4774105;30;20466;-83
2023/12/25 00:21:26;;;;;;;2.90;1.45;;;;;;;;;;4771814;29;20126;-82
2023/12/25 00:23:52;;;;;;;3.17;0.52;;;;;;;;;;4791674;29;20058;-83
2023/12/25 00:26:21;;;;;;;6.60;1.23;;;;;;;;;;4777290;30;20040;-83
2023/12/25 00:28:47;;;;;;;2.53;0.70;;;;;;;;;;4774171;30;20059;-83
2023/12/25 00:31:13;;;;;;;1.40;1.15;;;;;;;;;;4789528;30;20391;-82
2023/12/25 00:33:39;;;;;;;2.47;1.25;;;;;;;;;;4787863;29;20051;-83
2023/12/25 00:36:05;;;;;;;1.60;0.98;;;;;;;;;;4773384;30;20046;-83
2023/12/25 00:38:31;;;;;;;1.50;0.80;;;;;;;;;;4793116;29;20161;-83
2023/12/25 00:40:57;;;;;;;2.30;1.15;;;;;;;;;;4776789;29;20150;-83
2023/12/25 00:43:23;;;;;;;9.57;2.58;;;;;;;;;;4788778;30;20382;-83
2023/12/25 00:45:52;;;;;;;6.40;1.85;;;;;;;;;;4789204;30;20055;-83
2023/12/25 00:48:18;;;;;;;2.35;1.60;;;;;;;;;;4789145;30;20051;-83
2023/12/25 00:50:44;;;;;;;2.83;1.63;;;;;;;;;;4787992;29;20044;-83
2023/12/25 00:53:10;;;;;;;2.05;1.52;;;;;;;;;;4788412;30;20049;-83
2023/12/25 00:55:36;;;;;;;5.60;2.08;;;;;;;;;;4772791;30;20050;-83
2023/12/25 00:58:02;;;;;;;5.47;3.20;;;;;;;;;;4788890;30;20039;-83
2023/12/25 01:00:28;;;;;;;8.95;3.33;;;;;;;;;;4787445;30;20046;-83
2023/12/25 01:02:54;;;;;;;7.63;4.10;;;;;;;;;;4788387;30;20051;-83
2023/12/25 01:05:22;;;;;;;9.32;3.92;;;;;;;;;;4788657;30;20398;-83
2023/12/25 01:07:49;;;;;;;7.72;4.18;;;;;;;;;;4806653;29;20049;-82
2023/12/25 01:10:15;;;;;;;12.98;4.07;;;;;;;;;;4796387;29;20570;-83
2023/12/25 01:12:41;;;;;;;4.75;2.97;;;;;;;;;;4772377;30;20387;-83
2023/12/25 01:15:10;;;;;;;5.78;2.10;;;;;;;;;;4797565;29;20062;-83
2023/12/25 01:17:36;;;;;;;4.80;2.92;;;;;;;;;;4787621;30;20403;-83
2023/12/25 01:20:02;;;;;;;5.85;2.92;;;;;;;;;;4788268;30;20434;-83
2023/12/25 01:22:28;;;;;;;5.80;3.20;;;;;;;;;;4787611;29;20054;-83
2023/12/25 01:24:54;;;;;;;3.80;2.03;;;;;;;;;;4786965;30;20043;-83
2023/12/25 01:27:20;;;;;;;5.40;2.65;;;;;;;;;;4787029;30;20051;-83
2023/12/25 01:29:46;;;;;;;4.10;1.70;;;;;;;;;;4771553;30;20051;-83
2023/12/25 01:32:12;;;;;;;3.33;1.67;;;;;;;;;;4782867;30;20047;-83
2023/12/25 01:34:38;;;;;;;5.78;1.85;;;;;;;;;;4785408;29;21133;-83
2023/12/25 01:37:04;;;;;;;1.98;0.98;;;;;;;;;;4786917;30;20058;-83
2023/12/25 01:39:30;;;;;;;1.88;1.48;;;;;;;;;;4783575;30;20044;-83
2023/12/25 01:41:56;;;;;;;7.75;2.53;;;;;;;;;;4786570;30;20050;-83
2023/12/25 01:44:22;;;;;;;4.03;1.20;;;;;;;;;;4771216;30;20043;-83
2023/12/25 01:46:48;;;;;;;10.50;2.13;;;;;;;;;;4788840;29;20075;-82
2023/12/25 01:49:14;;;;;;;9.13;1.23;;;;;;;;;;4787774;30;20100;-82
2023/12/25 01:51:40;;;;;;;1.83;1.20;;;;;;;;;;4787855;30;20047;-83
2023/12/25 01:54:07;;;;;;;1.42;0.73;;;;;;;;;;4788180;30;20073;-83
2023/12/25 01:56:34;;;;;;;5.07;1.77;;;;;;;;;;4764165;30;20051;-83
2023/12/25 01:59:02;;;;;;;2.50;1.00;;;;;;;;;;4766399;30;20050;-83
2023/12/25 02:01:28;;;;;;;2.13;0.90;;;;;;;;;;4787837;30;20075;-82
2023/12/25 02:03:54;;;;;;;6.57;1.52;;;;;;;;;;4770949;30;20728;-82
2023/12/25 02:06:20;;;;;;;3.53;1.58;;;;;;;;;;4781192;30;20040;-83
2023/12/25 02:08:46;;;;;;;3.90;1.98;;;;;;;;;;4764083;30;20055;-83
2023/12/25 02:11:12;;;;;;;3.92;1.65;;;;;;;;;;4771383;30;20054;-83
2023/12/25 02:13:38;;;;;;;8.65;1.80;;;;;;;;;;4786131;30;20055;-83
2023/12/25 02:16:04;;;;;;;6.68;4.20;;;;;;;;;;4787410;30;20040;-83
2023/12/25 02:18:30;;;;;;;14.25;4.93;;;;;;;;;;4788088;30;20075;-83
2023/12/25 02:20:56;;;;;;;14.18;5.60;;;;;;;;;;4787390;30;20120;-83
2023/12/25 02:23:23;;;;;;;8.18;2.17;;;;;;;;;;4784830;30;20608;-83
2023/12/25 02:25:52;;;;;;;3.00;1.80;;;;;;;;;;4781934;30;20039;-83
2023/12/25 02:28:18;;;;;;;2.85;1.67;;;;;;;;;;4771365;30;20055;-83
2023/12/25 02:30:45;;;;;;;4.95;1.05;;;;;;;;;;4786369;30;20082;-83
2023/12/25 02:33:11;;;;;;;4.72;2.17;;;;;;;;;;4788256;30;20051;-83
2023/12/25 02:35:37;;;;;;;3.40;1.35;;;;;;;;;;4791791;29;20074;-83
2023/12/25 02:38:03;;;;;;;7.88;1.45;;;;;;;;;;4785762;30;20043;-83
2023/12/25 02:40:29;;;;;;;4.38;1.52;;;;;;;;;;4785704;30;20044;-83
2023/12/25 02:42:55;;;;;;;3.47;1.30;;;;;;;;;;4787273;30;20047;-83
2023/12/25 02:45:21;;;;;;;2.22;1.05;;;;;;;;;;4770322;30;20043;-83
2023/12/25 02:47:47;;;;;;;2.47;1.30;;;;;;;;;;4787373;30;20118;-83
2023/12/25 02:50:13;;;;;;;1.30;0.90;;;;;;;;;;4785933;30;20066;-83
2023/12/25 02:52:39;;;;;;;2.80;1.30;;;;;;;;;;4770522;30;20047;-83
2023/12/25 02:55:05;;;;;;;5.57;1.98;;;;;;;;;;4789773;29;20047;-83
2023/12/25 02:57:31;;;;;;;6.57;1.05;;;;;;;;;;4786798;30;20043;-83
2023/12/25 02:59:57;;;;;;;4.85;1.30;;;;;;;;;;4792510;29;20284;-83
2023/12/25 03:02:23;;;;;;;2.55;1.70;;;;;;;;;;4792131;29;20692;-83
2023/12/25 03:04:49;;;;;;;5.50;1.15;;;;;;;;;;4778874;30;20078;-82
2023/12/25 03:07:15;;;;;;;1.58;0.68;;;;;;;;;;4787994;29;20047;-83
2023/12/25 03:09:41;;;;;;;9.23;1.20;;;;;;;;;;4785965;30;20497;-82
2023/12/25 03:12:07;;;;;;;1.95;1.08;;;;;;;;;;4787044;30;20097;-83
2023/12/25 03:14:33;;;;;;;1.15;0.65;;;;;;;;;;4793883;29;20042;-83
2023/12/25 03:16:59;;;;;;;3.58;1.92;;;;;;;;;;4771871;30;20517;-83
2023/12/25 03:19:25;;;;;;;1.30;0.75;;;;;;;;;;4784669;29;20039;-83
2023/12/25 03:21:51;;;;;;;1.30;0.77;;;;;;;;;;4786608;30;20077;-83
2023/12/25 03:24:17;;;;;;;2.22;0.63;;;;;;;;;;4785833;30;20375;-83
2023/12/25 03:26:43;;;;;;;3.25;1.23;;;;;;;;;;4770200;30;20043;-83
2023/12/25 03:29:09;;;;;;;2.15;0.80;;;;;;;;;;4770884;30;20560;-83
2023/12/25 03:31:35;;;;;;;5.32;1.05;;;;;;;;;;4785113;30;20047;-83
2023/12/25 03:34:01;;;;;;;3.33;1.45;;;;;;;;;;4786497;30;20111;-82
2023/12/25 03:36:27;;;;;;;9.90;2.15;;;;;;;;;;4785951;30;20043;-83
2023/12/25 03:38:53;;;;;;;2.30;1.65;;;;;;;;;;4786595;30;20043;-83
2023/12/25 03:41:20;;;;;;;1.63;1.13;;;;;;;;;;4773927;30;20475;-83
2023/12/25 03:43:46;;;;;;;2.45;2.03;;;;;;;;;;4786572;30;20052;-83
2023/12/25 03:46:12;;;;;;;7.93;0.65;;;;;;;;;;4783970;30;20051;-83
2023/12/25 03:48:38;;;;;;;5.63;1.23;;;;;;;;;;4757571;30;20072;-83
2023/12/25 03:51:04;;;;;;;6.50;1.20;;;;;;;;;;4789368;29;20086;-83
2023/12/25 03:53:31;;;;;;;4.90;2.17;;;;;;;;;;4770114;30;20474;-83
2023/12/25 03:56:01;;;;;;;4.80;2.00;;;;;;;;;;4787689;29;20547;-83
2023/12/25 03:58:27;;;;;;;3.17;0.93;;;;;;;;;;4786847;30;20063;-83
2023/12/25 04:00:53;;;;;;;6.53;1.92;;;;;;;;;;4793684;29;20090;-83
2023/12/25 04:03:19;;;;;;;4.70;2.90;;;;;;;;;;4785983;30;20585;-83
2023/12/25 04:05:45;;;;;;;3.55;2.33;;;;;;;;;;4770310;30;20054;-83
2023/12/25 04:08:11;;;;;;;4.10;1.35;;;;;;;;;;4785846;30;20067;-83
2023/12/25 04:10:37;;;;;;;5.85;1.63;;;;;;;;;;4770074;30;20393;-83
2023/12/25 04:13:03;;;;;;;2.03;1.23;;;;;;;;;;4786501;29;20047;-83
2023/12/25 04:15:29;;;;;;;2.17;1.05;;;;;;;;;;4770059;30;20602;-83
2023/12/25 04:17:56;;;;;;;2.13;0.82;;;;;;;;;;4786777;29;20089;-83
2023/12/25 04:20:22;;;;;;;1.92;1.15;;;;;;;;;;4769964;30;20082;-83
2023/12/25 04:22:49;;;;;;;5.65;2.95;;;;;;;;;;4781229;30;20067;-83
2023/12/25 04:25:15;;;;;;;4.78;2.95;;;;;;;;;;4779460;30;20054;-83
2023/12/25 04:27:41;;;;;;;7.35;1.63;;;;;;;;;;4788560;29;20388;-83
2023/12/25 04:30:07;;;;;;;1.25;0.73;;;;;;;;;;4789008;30;20048;-83
2023/12/25 04:32:33;;;;;;;1.88;1.02;;;;;;;;;;4788870;30;20044;-83
2023/12/25 04:34:59;;;;;;;3.28;1.00;;;;;;;;;;4789595;30;20047;-83
2023/12/25 04:37:25;;;;;;;4.47;1.00;;;;;;;;;;4772738;30;20047;-83
2023/12/25 04:39:51;;;;;;;2.38;1.05;;;;;;;;;;4789059;30;20486;-83
2023/12/25 04:42:17;;;;;;;1.95;1.02;;;;;;;;;;4789483;29;20047;-83
2023/12/25 04:44:43;;;;;;;1.75;0.70;;;;;;;;;;4772849;30;20600;-83
2023/12/25 04:47:09;;;;;;;2.83;0.77;;;;;;;;;;4794645;29;20147;-83
2023/12/25 04:49:35;;;;;;;1.45;1.13;;;;;;;;;;4790418;29;20043;-83
2023/12/25 04:52:02;;;;;;;1.90;0.77;;;;;;;;;;4788515;30;20043;-83
2023/12/25 04:54:28;;;;;;;1.30;0.70;;;;;;;;;;4788226;30;20427;-83
2023/12/25 04:56:56;;;;;;;0.32;0.20;;;;;;;;;;4788711;30;20055;-83
2023/12/25 04:59:22;;;;;;;5.63;0.95;;;;;;;;;;4788592;30;20039;-83
2023/12/25 05:01:49;;;;;;;0.30;0.30;;;;;;;;;;4790058;29;20501;-83
2023/12/25 05:04:16;;;;;;;0.05;0.05;;;;;;;;;;4777033;30;20133;-83
2023/12/25 05:06:42;;;;;;;3.15;0.63;;;;;;;;;;4788764;30;20055;-83
2023/12/25 05:09:08;;;;;;;1.08;0.45;;;;;;;;;;4780142;30;20059;-83
2023/12/25 05:11:34;;;;;;;1.00;0.55;;;;;;;;;;4765036;30;20055;-83
2023/12/25 05:14:00;;;;;;;1.35;0.22;;;;;;;;;;4786384;30;20806;-83
2023/12/25 05:16:27;;;;;;;0.85;0.32;;;;;;;;;;4802449;29;20051;-83
2023/12/25 05:18:53;;;;;;;0.38;0.20;;;;;;;;;;4792308;29;20113;-82
2023/12/25 05:21:19;;;;;;;6.28;1.08;;;;;;;;;;4772402;30;20530;-83
2023/12/25 05:23:45;;;;;;;0.85;0.30;;;;;;;;;;4795790;29;20134;-83
2023/12/25 05:26:11;;;;;;;0.90;0.55;;;;;;;;;;4778487;29;20043;-83
2023/12/25 05:28:37;;;;;;;0.80;0.50;;;;;;;;;;4777486;30;20402;-83
2023/12/25 05:31:03;;;;;;;0.30;0.10;;;;;;;;;;4788331;30;20047;-83
2023/12/25 05:33:29;;;;;;;0.52;0.47;;;;;;;;;;4791815;29;20043;-82
2023/12/25 05:35:55;;;;;;;3.65;0.88;;;;;;;;;;4788701;30;20070;-83
2023/12/25 05:38:21;;;;;;;1.80;0.45;;;;;;;;;;4786626;29;20046;-83
2023/12/25 05:40:47;;;;;;;0.70;0.47;;;;;;;;;;4771953;30;20431;-83
2023/12/25 05:43:13;;;;;;;0.30;0.20;;;;;;;;;;4784860;29;20501;-83
2023/12/25 05:45:39;;;;;;;0.43;0.32;;;;;;;;;;4788643;30;20099;-83
2023/12/25 05:48:05;;;;;;;0.60;0.40;;;;;;;;;;4786537;30;20047;-83
2023/12/25 05:50:31;;;;;;;1.10;0.30;;;;;;;;;;4787884;30;20047;-83
2023/12/25 05:52:57;;;;;;;0.63;0.40;;;;;;;;;;4788401;30;20478;-83
2023/12/25 05:55:25;;;;;;;0.43;0.30;;;;;;;;;;4788254;30;20047;-83
2023/12/25 05:57:51;;;;;;;1.38;0.77;;;;;;;;;;4772566;30;20381;-83
2023/12/25 06:00:17;;;;;;;2.55;0.20;;;;;;;;;;4793608;29;20750;-83
2023/12/25 06:02:43;;;;;;;0.55;0.38;;;;;;;;;;4787323;30;20097;-83
2023/12/25 06:05:09;;;;;;;0.28;0.20;;;;;;;;;;4787994;30;20047;-82
2023/12/25 06:07:35;;;;;;;0.47;0.40;;;;;;;;;;4788475;30;20070;-83
2023/12/25 06:10:01;;;;;;;1.00;0.55;;;;;;;;;;4786512;30;20050;-82
2023/12/25 06:12:27;;;;;;;0.80;0.47;;;;;;;;;;4790036;29;20062;-83
2023/12/25 06:14:53;;;;;;;0.30;0.30;;;;;;;;;;4787697;30;20066;-83
2023/12/25 06:17:19;;;;;;;1.38;0.50;;;;;;;;;;4786654;30;20081;-83
2023/12/25 06:19:45;;;;;;;0.68;0.52;;;;;;;;;;4785931;30;20486;-83
2023/12/25 06:22:11;;;;;;;0.80;0.38;;;;;;;;;;4788175;30;20044;-83
2023/12/25 06:24:37;;;;;;;1.95;0.95;;;;;;;;;;4786939;30;20051;-83
2023/12/25 06:27:03;;;;;;;0.08;0.08;;;;;;;;;;4787585;30;20054;-83
2023/12/25 06:29:29;;;;;;;4.82;0.77;;;;;;;;;;4787405;30;20078;-83
2023/12/25 06:31:55;;;;;;;3.20;0.63;;;;;;;;;;4771063;30;20112;-83
2023/12/25 06:34:21;;;;;;;4.68;1.17;;;;;;;;;;4786657;30;20447;-83
2023/12/25 06:36:47;;;;;;;3.90;1.13;;;;;;;;;;4762094;30;20105;-83
2023/12/25 06:39:13;;;;;;;2.45;1.10;;;;;;;;;;4775186;30;20705;-83
2023/12/25 06:41:39;;;;;;;1.70;0.70;;;;;;;;;;4784491;29;20051;-83
2023/12/25 06:44:06;;;;;;;1.45;0.90;;;;;;;;;;4770872;30;20036;-83
2023/12/25 06:46:32;;;;;;;2.72;1.25;;;;;;;;;;4787503;29;20466;-82
2023/12/25 06:48:59;;;;;;;2.13;0.52;;;;;;;;;;4787117;30;20043;-82
2023/12/25 06:51:26;;;;;;;0.95;0.47;;;;;;;;;;4786464;30;20544;-82
2023/12/25 06:53:52;;;;;;;4.00;1.15;;;;;;;;;;4787970;29;20051;-82
2023/12/25 06:56:18;;;;;;;4.50;0.85;;;;;;;;;;4793238;29;20059;-81
2023/12/25 06:58:44;;;;;;;2.45;0.57;;;;;;;;;;4798420;29;20480;-82
2023/12/25 07:01:10;;;;;;;0.40;0.15;;;;;;;;;;4791476;29;20041;-82
2023/12/25 07:03:36;;;;;;;3.60;1.27;;;;;;;;;;4795207;29;20054;-82
2023/12/25 07:06:02;;;;;;;2.28;0.98;;;;;;;;;;4785545;30;20529;-82
2023/12/25 07:08:28;;;;;;;0.40;0.40;;;;;;;;;;4794895;29;20437;-82
2023/12/25 07:10:55;;;;;;;0.20;0.13;;;;;;;;;;4786722;30;20105;-82
2023/12/25 07:13:21;;;;;;;0.77;0.47;;;;;;;;;;4787438;30;20047;-82
2023/12/25 07:15:47;;;;;;;1.08;0.50;;;;;;;;;;4786750;30;20113;-82
2023/12/25 07:18:13;;;;;;;0.82;0.43;;;;;;;;;;4770672;30;20130;-82
2023/12/25 07:20:39;;;;;;;1.73;0.60;;;;;;;;;;4785842;30;20047;-81
2023/12/25 07:23:05;;;;;;;4.53;1.38;;;;;;;;;;4770527;30;20036;-82
2023/12/25 07:25:31;;;;;;;5.07;0.90;;;;;;;;;;4785861;30;20044;-82
2023/12/25 07:27:57;;;;;;;1.08;0.80;;;;;;;;;;4770335;30;20126;-82
2023/12/25 07:30:23;;;;;;;3.03;1.77;;;;;;;;;;4785056;30;20075;-82
2023/12/25 07:32:49;;;;;;;1.85;1.05;;;;;;;;;;4788021;29;20035;-82
2023/12/25 07:35:15;;;;;;;5.63;2.45;;;;;;;;;;4786162;30;20089;-82
2023/12/25 07:37:41;;;;;;;3.05;1.33;;;;;;;;;;4769428;30;20071;-82
2023/12/25 07:40:07;;;;;;;1.27;0.63;;;;;;;;;;4786636;29;20078;-82
2023/12/25 07:42:33;;;;;;;1.70;0.75;;;;;;;;;;4786793;30;20410;-82
2023/12/25 07:45:00;;;;;;;0.85;0.70;;;;;;;;;;4786369;30;20047;-82
2023/12/25 07:47:26;;;;;;;1.75;0.93;;;;;;;;;;4785923;30;20046;-82
2023/12/25 07:49:52;;;;;;;0.82;0.45;;;;;;;;;;4802429;29;20096;-82
2023/12/25 07:52:18;;;;;;;7.22;1.33;;;;;;;;;;4799803;29;20051;-82
2023/12/25 07:54:45;;;;;;;5.75;1.65;;;;;;;;;;4786384;30;20188;-82
2023/12/25 07:57:11;;;;;;;1.27;0.88;;;;;;;;;;4786647;30;20429;-81
2023/12/25 07:59:37;;;;;;;0.80;0.47;;;;;;;;;;4771202;30;20047;-82
2023/12/25 08:02:03;;;;;;;2.80;2.10;;;;;;;;;;4779706;29;20042;-81
2023/12/25 08:04:29;;;;;;;8.18;3.47;;;;;;;;;;4790182;30;20413;-82
2023/12/25 08:06:55;;;;;;;6.07;2.97;;;;;;;;;;4789282;30;20055;-82
2023/12/25 08:09:21;;;;;;;9.45;4.05;;;;;;;;;;4789685;30;20058;-82
2023/12/25 08:11:47;;;;;;;13.63;3.58;;;;;;;;;;4789484;30;20090;-82
2023/12/25 08:14:13;;;;;;;4.43;1.65;;;;;;;;;;4802514;29;20157;-82
2023/12/25 08:16:39;;;;;;;2.13;1.05;;;;;;;;;;4790491;29;20582;-81
2023/12/25 08:19:05;;;;;;;0.73;0.35;;;;;;;;;;4790047;29;20051;-82
2023/12/25 08:21:31;;;;;;;1.83;0.85;;;;;;;;;;4791219;29;20126;-81
2023/12/25 08:23:57;;;;;;;2.55;1.05;;;;;;;;;;4789205;30;20044;-82
2023/12/25 08:26:23;;;;;;;5.65;1.00;;;;;;;;;;4789380;30;20075;-81
2023/12/25 08:28:52;;;;;;;3.78;1.65;;;;;;;;;;4773610;30;20144;-82
2023/12/25 08:31:18;;;;;;;2.72;0.65;;;;;;;;;;4789637;30;20046;-82
2023/12/25 08:33:44;;;;;;;2.08;0.50;;;;;;;;;;4789772;29;20051;-82
2023/12/25 08:36:10;;;;;;;0.85;0.20;;;;;;;;;;4798150;29;20492;-82
2023/12/25 08:38:36;;;;;;;0.45;0.08;;;;;;;;;;4786461;29;20168;-82
2023/12/25 08:41:02;;;;;;;0.10;0.10;;;;;;;;;;4784011;30;20542;-82
2023/12/25 08:43:29;;;;;;;1.58;0.75;;;;;;;;;;4790321;30;20466;-82
2023/12/25 08:45:55;;;;;;;1.85;0.85;;;;;;;;;;4779280;30;20043;-82
2023/12/25 08:48:21;;;;;;;1.92;1.02;;;;;;;;;;4770980;30;20100;-82
2023/12/25 08:50:47;;;;;;;0.98;0.50;;;;;;;;;;4789270;30;20498;-82
2023/12/25 08:53:13;;;;;;;1.70;0.73;;;;;;;;;;4788837;30;20043;-82
2023/12/25 08:55:39;;;;;;;2.00;1.42;;;;;;;;;;4789129;29;20048;-83
2023/12/25 08:58:05;;;;;;;3.00;1.40;;;;;;;;;;4788510;30;20075;-82
2023/12/25 09:00:31;;;;;;;4.07;2.17;;;;;;;;;;4788822;30;20044;-82
2023/12/25 09:02:57;;;;;;;4.05;1.90;;;;;;;;;;4789348;30;20051;-82
2023/12/25 09:05:23;;;;;;;1.20;0.68;;;;;;;;;;4788173;30;20471;-82
2023/12/25 09:07:49;;;;;;;1.23;0.95;;;;;;;;;;4788787;30;20043;-82
2023/12/25 09:10:15;;;;;;;2.20;1.13;;;;;;;;;;4786077;29;20039;-82
2023/12/25 09:12:41;;;;;;;1.85;0.90;;;;;;;;;;4789088;29;20071;-82
2023/12/25 09:15:07;;;;;;;1.23;0.68;;;;;;;;;;4788913;30;20082;-82
2023/12/25 09:17:34;;;;;;;3.95;0.82;;;;;;;;;;4788863;30;20055;-82
2023/12/25 09:20:02;;;;;;;1.25;0.68;;;;;;;;;;4788330;30;20047;-82
2023/12/25 09:22:28;;;;;;;6.93;4.18;;;;;;;;;;4789195;30;20122;-82
2023/12/25 09:24:54;;;;;;;4.90;1.65;;;;;;;;;;4788379;30;20107;-82
2023/12/25 09:27:20;;;;;;;3.03;1.13;;;;;;;;;;4796168;29;20134;-82
2023/12/25 09:29:46;;;;;;;5.38;1.80;;;;;;;;;;4787226;30;20482;-82
2023/12/25 09:32:12;;;;;;;5.57;1.63;;;;;;;;;;4789422;30;20047;-82
2023/12/25 09:34:39;;;;;;;2.15;1.17;;;;;;;;;;4788102;30;20051;-82
2023/12/25 09:37:05;;;;;;;4.45;0.93;;;;;;;;;;4795862;29;20047;-82
2023/12/25 09:39:31;;;;;;;2.05;0.90;;;;;;;;;;4806960;29;20035;-82
2023/12/25 09:41:57;;;;;;;3.92;2.30;;;;;;;;;;4789008;29;20047;-82
2023/12/25 09:44:24;;;;;;;6.38;2.10;;;;;;;;;;4789341;30;20043;-82
2023/12/25 09:46:50;;;;;;;7.32;2.00;;;;;;;;;;4787946;30;20058;-82
2023/12/25 09:49:16;;;;;;;3.92;2.03;;;;;;;;;;4797659;29;20043;-82
2023/12/25 09:51:43;;;;;;;1.75;0.88;;;;;;;;;;4776989;30;20043;-82
2023/12/25 09:54:09;;;;;;;1.77;0.50;;;;;;;;;;4788619;30;20046;-82
2023/12/25 09:56:37;;;;;;;2.03;0.65;;;;;;;;;;4793922;29;20046;-82
2023/12/25 09:59:04;;;;;;;9.60;1.48;;;;;;;;;;4776535;30;20048;-82
2023/12/25 10:01:33;;;;;;;2.22;1.10;;;;;;;;;;4790088;29;20130;-82
2023/12/25 10:03:59;;;;;;;2.17;1.00;;;;;;;;;;4786565;30;20043;-82
2023/12/25 10:06:25;;;;;;;2.08;1.30;;;;;;;;;;4788409;30;20123;-82
2023/12/25 10:08:51;;;;;;;3.40;0.98;;;;;;;;;;4788245;30;20100;-82
2023/12/25 10:11:17;;;;;;;2.22;1.02;;;;;;;;;;4787601;30;20134;-82
2023/12/25 10:13:44;;;;;;;3.53;0.57;;;;;;;;;;4787968;30;20100;-82
2023/12/25 10:16:10;;;;;;;1.58;0.63;;;;;;;;;;4787929;30;20053;-82
2023/12/25 10:18:39;;;;;;;3.55;0.68;;;;;;;;;;4787317;30;20078;-82
2023/12/25 10:21:06;;;;;;;2.63;1.10;;;;;;;;;;4771660;30;20054;-82
2023/12/25 10:23:33;;;;;;;4.32;1.08;;;;;;;;;;4770828;29;20054;-82
2023/12/25 10:26:00;;;;;;;2.22;0.73;;;;;;;;;;4787348;30;20054;-82
2023/12/25 10:28:26;;;;;;;5.03;1.55;;;;;;;;;;4788636;29;20040;-82
2023/12/25 10:31:02;;;;;;;5.13;2.00;;;;;;;;;;4787626;30;20066;-82
2023/12/25 10:33:29;;;;;;;4.13;1.67;;;;;;;;;;4786403;30;20055;-82
2023/12/25 10:36:09;;;;;;;1.85;1.27;;;;;;;;;;4787689;30;20051;-82
2023/12/25 10:38:36;;;;;;;1.40;0.70;;;;;;;;;;4771242;30;20051;-82
2023/12/25 10:41:21;;;;;;;4.78;1.30;;;;;;;;;;4783335;30;20048;-82
2023/12/25 10:43:50;;;;;;;4.03;2.22;;;;;;;;;;4773384;30;20039;-82
2023/12/25 10:46:17;;;;;;;2.35;1.70;;;;;;;;;;4787434;30;20043;-82
2023/12/25 10:48:49;;;;;;;10.93;1.38;;;;;;;;;;4794656;29;20128;-82
2023/12/25 10:51:15;;;;;;;3.10;1.73;;;;;;;;;;4786924;30;20043;-82
2023/12/25 10:53:42;;;;;;;7.22;2.78;;;;;;;;;;4777543;30;20050;-82
2023/12/25 10:56:08;;;;;;;2.25;1.33;;;;;;;;;;4787389;30;20089;-82
2023/12/25 10:58:34;;;;;;;3.00;1.13;;;;;;;;;;4781576;30;20077;-82
2023/12/25 11:01:01;;;;;;;7.85;2.42;;;;;;;;;;4786479;30;20066;-82
2023/12/25 11:03:28;;;;;;;6.88;0.98;;;;;;;;;;4787386;30;20054;-82
2023/12/25 11:05:55;;;;;;;2.03;1.55;;;;;;;;;;4790209;29;20066;-82
2023/12/25 11:08:21;;;;;;;1.63;1.17;;;;;;;;;;4782556;30;20058;-82
2023/12/25 11:10:47;;;;;;;2.08;0.93;;;;;;;;;;4786543;29;20059;-82
2023/12/25 11:13:14;;;;;;;2.78;1.30;;;;;;;;;;4787338;30;20047;-82
2023/12/25 11:15:40;;;;;;;6.68;1.70;;;;;;;;;;4786678;30;20089;-82
2023/12/25 11:18:09;;;;;;;1.48;0.60;;;;;;;;;;4787177;30;20085;-82
2023/12/25 11:20:35;;;;;;;2.60;1.08;;;;;;;;;;4787340;30;20043;-82
2023/12/25 11:23:05;;;;;;;3.08;1.38;;;;;;;;;;4786793;30;20046;-82
2023/12/25 11:25:33;;;;;;;2.15;0.95;;;;;;;;;;4770305;30;20039;-82
2023/12/25 11:28:04;;;;;;;2.30;0.95;;;;;;;;;;4782715;30;20055;-82
2023/12/25 11:30:35;;;;;;;1.55;0.90;;;;;;;;;;4780923;30;20084;-82
2023/12/25 11:33:01;;;;;;;1.40;0.80;;;;;;;;;;4787573;30;20071;-82
2023/12/25 11:35:28;;;;;;;2.15;0.95;;;;;;;;;;4787416;29;20074;-82
2023/12/25 11:38:13;;;;;;;1.50;0.63;;;;;;;;;;4794150;29;20165;-82
2023/12/25 11:40:39;;;;;;;1.15;0.60;;;;;;;;;;4790086;30;20126;-83
2023/12/25 11:43:07;;;;;;;6.07;1.08;;;;;;;;;;4773962;30;20082;-83
2023/12/25 11:45:37;;;;;;;3.05;1.75;;;;;;;;;;4771693;30;20031;-82
2023/12/25 11:48:05;;;;;;;4.88;2.38;;;;;;;;;;4797755;29;20039;-83
2023/12/25 11:50:32;;;;;;;3.50;1.85;;;;;;;;;;4792549;29;20044;-82
2023/12/25 11:52:58;;;;;;;7.32;2.03;;;;;;;;;;4774471;30;20371;-82
2023/12/25 11:55:26;;;;;;;3.67;0.70;;;;;;;;;;4774215;30;20047;-83
2023/12/25 11:57:52;;;;;;;4.05;1.50;;;;;;;;;;4790280;30;20051;-82
2023/12/25 12:00:22;;;;;;;1.92;1.15;;;;;;;;;;4807118;29;20050;-82
2023/12/25 12:02:49;;;;;;;1.55;0.70;;;;;;;;;;4788937;29;20053;-82
2023/12/25 12:05:16;;;;;;;2.03;1.02;;;;;;;;;;4808871;29;20055;-83
2023/12/25 12:07:43;;;;;;;4.97;1.63;;;;;;;;;;4807120;29;20049;-82
2023/12/25 12:10:10;;;;;;;1.33;0.75;;;;;;;;;;4808417;29;20055;-82
2023/12/25 12:12:36;;;;;;;4.20;0.70;;;;;;;;;;4807702;29;20054;-83
2023/12/25 12:15:03;;;;;;;4.20;1.40;;;;;;;;;;4806652;29;20061;-82
2023/12/25 12:17:29;;;;;;;2.33;1.58;;;;;;;;;;4790669;29;20067;-82
2023/12/25 12:19:56;;;;;;;0.52;0.40;;;;;;;;;;4808040;29;20074;-82
2023/12/25 12:22:23;;;;;;;1.75;0.43;;;;;;;;;;4806909;29;20058;-83
2023/12/25 12:24:50;;;;;;;2.70;0.70;;;;;;;;;;4808078;29;20047;-83
2023/12/25 12:27:18;;;;;;;0.45;0.20;;;;;;;;;;4807167;29;20478;-82
2023/12/25 12:29:46;;;;;;;0.28;0.10;;;;;;;;;;4810033;29;20557;-83
2023/12/25 12:32:13;;;;;;;1.95;0.47;;;;;;;;;;4804727;29;20037;-83
2023/12/25 12:34:39;;;;;;;1.80;0.82;;;;;;;;;;4808599;29;20059;-83
2023/12/25 12:37:05;;;;;;;2.45;1.30;;;;;;;;;;4807205;29;20039;-83
2023/12/25 12:39:35;;;;;;;2.38;0.98;;;;;;;;;;4798161;29;20047;-83
2023/12/25 12:42:01;;;;;;;0.85;0.57;;;;;;;;;;4809621;29;20135;-82
2023/12/25 12:44:27;;;;;;;1.30;0.50;;;;;;;;;;4790902;29;20091;-83
2023/12/25 12:46:53;;;;;;;1.02;0.32;;;;;;;;;;4806851;29;20112;-83
2023/12/25 12:49:20;;;;;;;0.50;0.28;;;;;;;;;;4788562;29;20494;-83
2023/12/25 12:51:46;;;;;;;0.20;0.10;;;;;;;;;;4806335;29;20504;-83
2023/12/25 12:54:12;;;;;;;0.10;0.10;;;;;;;;;;4806972;29;20046;-83
2023/12/25 12:56:38;;;;;;;0.38;0.35;;;;;;;;;;4807222;29;20055;-83
2023/12/25 12:59:04;;;;;;;2.58;0.85;;;;;;;;;;4806631;29;20042;-83
2023/12/25 13:01:30;;;;;;;4.05;1.10;;;;;;;;;;4806408;29;20490;-83
2023/12/25 13:03:57;;;;;;;0.47;0.38;;;;;;;;;;4808749;29;20043;-83
2023/12/25 13:06:23;;;;;;;1.85;0.68;;;;;;;;;;4811741;29;20039;-83
2023/12/25 13:08:53;;;;;;;0.65;0.43;;;;;;;;;;4807263;29;20050;-83
2023/12/25 13:11:20;;;;;;;0.77;0.50;;;;;;;;;;4791797;29;20145;-83
2023/12/25 13:13:46;;;;;;;2.03;0.52;;;;;;;;;;4810630;29;20130;-83
2023/12/25 13:16:14;;;;;;;0.93;0.30;;;;;;;;;;4807010;29;20081;-83
2023/12/25 13:18:40;;;;;;;1.13;0.45;;;;;;;;;;4790682;29;20043;-83
2023/12/25 13:21:06;;;;;;;0.28;0.20;;;;;;;;;;4806421;29;20039;-83
2023/12/25 13:23:32;;;;;;;0.55;0.40;;;;;;;;;;4790348;29;20394;-83
2023/12/25 13:25:58;;;;;;;0.85;0.40;;;;;;;;;;4807565;29;20101;-83
2023/12/25 13:28:24;;;;;;;1.35;0.60;;;;;;;;;;4808323;29;20477;-83
2023/12/25 13:30:50;;;;;;;1.83;0.70;;;;;;;;;;4807206;29;20038;-83
2023/12/25 13:33:16;;;;;;;0.28;0.20;;;;;;;;;;4821351;29;20730;-83
2023/12/25 13:35:42;;;;;;;2.10;1.08;;;;;;;;;;4806909;29;20047;-83
2023/12/25 13:38:08;;;;;;;1.83;0.95;;;;;;;;;;4807114;29;20631;-83
2023/12/25 13:40:34;;;;;;;1.02;0.55;;;;;;;;;;4806807;29;20114;-83
2023/12/25 13:43:00;;;;;;;0.90;0.70;;;;;;;;;;4821680;29;20039;-83
2023/12/25 13:45:26;;;;;;;1.88;1.13;;;;;;;;;;4789328;29;20081;-83
2023/12/25 13:47:52;;;;;;;4.75;1.33;;;;;;;;;;4797505;29;20042;-83
2023/12/25 13:50:18;;;;;;;2.33;1.45;;;;;;;;;;4805791;29;20054;-83
2023/12/25 13:52:44;;;;;;;1.60;1.00;;;;;;;;;;4806243;29;20444;-83
2023/12/25 13:55:11;;;;;;;1.52;0.77;;;;;;;;;;4806002;29;20050;-83
2023/12/25 13:57:37;;;;;;;5.25;1.13;;;;;;;;;;4806303;29;20043;-83
2023/12/25 14:00:05;;;;;;;4.25;1.20;;;;;;;;;;4805421;29;20463;-82
2023/12/25 14:02:31;;;;;;;2.60;1.45;;;;;;;;;;4806025;29;20063;-82
2023/12/25 14:04:57;;;;;;;1.45;0.90;;;;;;;;;;4806392;29;20497;-82
2023/12/25 14:07:24;;;;;;;1.30;0.75;;;;;;;;;;4806284;29;20046;-83
2023/12/25 14:09:50;;;;;;;2.25;1.23;;;;;;;;;;4811861;29;20465;-83
2023/12/25 14:12:16;;;;;;;1.88;0.63;;;;;;;;;;4805987;29;20138;-82
2023/12/25 14:14:42;;;;;;;2.92;0.68;;;;;;;;;;4806095;29;20188;-82
2023/12/25 14:17:08;;;;;;;0.90;0.60;;;;;;;;;;4806143;29;20054;-82
2023/12/25 14:19:34;;;;;;;1.25;0.82;;;;;;;;;;4786816;29;20051;-83
2023/12/25 14:22:01;;;;;;;3.03;0.73;;;;;;;;;;4805922;29;20141;-82
2023/12/25 14:24:27;;;;;;;1.88;0.80;;;;;;;;;;4789511;29;20489;-83
2023/12/25 14:26:53;;;;;;;0.88;0.57;;;;;;;;;;4803651;29;20062;-83
2023/12/25 14:29:19;;;;;;;1.55;1.25;;;;;;;;;;4805325;29;20481;-82
2023/12/25 14:31:45;;;;;;;6.20;1.58;;;;;;;;;;4789131;29;20168;-83
2023/12/25 14:34:11;;;;;;;2.95;0.68;;;;;;;;;;4804744;29;20051;-83
2023/12/25 14:36:37;;;;;;;1.05;0.50;;;;;;;;;;4789462;29;20046;-83
2023/12/25 14:39:04;;;;;;;5.50;1.20;;;;;;;;;;4804935;29;20045;-83